Silver City, South Dakota
Current Conditions -  °F | °C
As of 6:58 AM on Wednesday 22 Oct 2014 (Local Time) from KRCA Reporting Station
Broken Clouds Broken Clouds  
Wind Chill: 53°   Ceiling: 12000
Heat Index: 53°   Visibility: 10mi
Dew Point: 36°   Wind: 23mph
Humidity: 53%   Direction: 350°N
Pressure: 29.92"   Gusts: 29mph
Location:  44.07°N, 103.324°W
Report Text: KRCA 221258Z AUTO 35020G25KT 10SM BKN120 11/02 A2992 RMK AO2 PK WND 34027/53 SLP125 T01140020 $
Loading
Personal Weather Stations






























Interactive Weather Map
Tropical Storm Tracking
New forecast layout! Learn more

10-Day Weather Forecast

Advertisements
Track Severe Weather on mobile